Terminal Aerodrome Forecast
Issued by NWS

Home | Current Version | Previous Version | Text Only | Print | Product List | Glossary On
Versions: 1 2 3 4 5 6 7 8 9 10 11 12 13 14 15 16 17 18 19 20 21 22 23 24 25 26 27 28 29 30 31 32 33
000
FTUS43 KDLH 292300 RRA
TAFBRD
TAF
KBRD 292341Z 3000/3024 33003KT P6SM VCSH FEW011 OVC024
      TEMPO 3002/3006 2SM BR BKN011
     FM300600 36003KT 1SM BR OVC010
      TEMPO 3008/3012 3/4SM BR OVC004
     FM301500 01005KT P6SM BKN015
     FM301800 VRB05KT P6SM VCSH BKN030=

USA.gov is the U.S. government's official web portal to all federal, state and local government web resources and services.